createdAt,value
2022-12-15T00:00:01.180Z,-0.30
2022-12-15T00:03:51.273Z,-0.30
2022-12-15T00:06:56.974Z,-0.30
2022-12-15T00:10:02.401Z,-0.29
2022-12-15T00:13:08.106Z,-0.29
2022-12-15T00:16:13.692Z,-0.38
2022-12-15T00:19:19.515Z,-0.42
2022-12-15T00:22:25.378Z,-0.34
2022-12-15T00:25:31.067Z,-0.28
2022-12-15T00:28:36.563Z,-0.20
2022-12-15T00:31:42.362Z,-0.29
2022-12-15T00:34:47.976Z,-0.33
2022-12-15T00:37:53.671Z,-0.29
2022-12-15T00:40:40.698Z,-0.30
2022-12-15T00:43:33.177Z,-0.24
2022-12-15T00:46:39.198Z,-0.25
2022-12-15T00:49:46.850Z,-0.19
2022-12-15T00:52:52.403Z,-0.25
2022-12-15T00:55:58.123Z,-0.19
2022-12-15T00:59:03.950Z,-0.32
2022-12-15T01:02:09.907Z,-0.26
2022-12-15T01:05:17.725Z,-0.28
2022-12-15T01:08:23.564Z,-0.25
2022-12-15T01:11:29.294Z,-0.17
2022-12-15T01:14:35.005Z,-0.15
2022-12-15T01:17:40.600Z,-0.22
2022-12-15T01:20:27.650Z,-0.21
2022-12-15T01:23:14.673Z,-0.24
2022-12-15T01:26:02.159Z,-0.13
2022-12-15T01:28:49.221Z,-0.27
2022-12-15T01:31:36.812Z,-0.20
2022-12-15T01:34:23.936Z,-0.15
2022-12-15T01:37:11.057Z,-0.03
2022-12-15T01:40:16.398Z,-0.21
2022-12-15T01:43:03.493Z,-0.17
2022-12-15T01:45:58.851Z,-0.10
2022-12-15T01:48:57.553Z,0.00
2022-12-15T01:51:48.790Z,0.02
2022-12-15T01:54:41.088Z,-0.11
2022-12-15T01:57:32.159Z,-0.03
2022-12-15T02:00:19.168Z,0.07
2022-12-15T02:03:07.785Z,0.05
2022-12-15T02:05:55.976Z,0.05
2022-12-15T02:08:47.396Z,0.13
2022-12-15T02:12:08.291Z,0.11
2022-12-15T02:15:10.904Z,0.14
2022-12-15T02:18:03.159Z,0.05
2022-12-15T02:21:16.647Z,0.10
2022-12-15T02:24:15.692Z,0.08
2022-12-15T02:27:12.410Z,0.16
2022-12-15T02:30:05.222Z,0.16
2022-12-15T02:33:15.193Z,0.17
2022-12-15T02:36:12.877Z,0.06
2022-12-15T02:39:00.004Z,0.10
2022-12-15T02:41:47.967Z,0.15
2022-12-15T02:44:47.220Z,0.15
2022-12-15T02:47:58.311Z,0.12
2022-12-15T02:51:00.442Z,0.15
2022-12-15T02:54:15.850Z,0.11
2022-12-15T02:57:20.744Z,0.10
2022-12-15T03:00:11.251Z,0.19
2022-12-15T03:02:59.012Z,0.15
2022-12-15T03:05:54.816Z,0.20
2022-12-15T03:08:41.860Z,0.15
2022-12-15T03:11:29.233Z,0.15
2022-12-15T03:14:16.715Z,0.16
2022-12-15T03:17:07.254Z,0.15
2022-12-15T03:19:54.291Z,0.21
2022-12-15T03:22:42.537Z,0.20
2022-12-15T03:25:30.096Z,0.25
2022-12-15T03:28:17.268Z,0.31
2022-12-15T03:31:04.414Z,0.23
2022-12-15T03:33:51.469Z,0.25
2022-12-15T03:36:38.740Z,0.15
2022-12-15T03:39:25.794Z,0.15
2022-12-15T03:42:12.896Z,0.06
2022-12-15T03:44:59.918Z,0.05
2022-12-15T03:47:47.728Z,0.04
2022-12-15T03:50:34.775Z,-0.01
2022-12-15T03:53:21.909Z,0.02
2022-12-15T03:56:09.119Z,0.06
2022-12-15T03:58:56.249Z,0.00
2022-12-15T04:01:48.322Z,-0.10
2022-12-15T04:04:35.640Z,-0.11
2022-12-15T04:07:22.772Z,-0.19
2022-12-15T04:10:11.271Z,-0.23
2022-12-15T04:13:02.967Z,-0.25
2022-12-15T04:15:50.180Z,-0.19
2022-12-15T04:18:37.890Z,-0.14
2022-12-15T04:21:24.931Z,-0.25
2022-12-15T04:24:30.920Z,-0.27
2022-12-15T04:27:36.889Z,-0.14
2022-12-15T04:30:44.536Z,-0.25
2022-12-15T04:33:50.707Z,-0.30
2022-12-15T04:36:58.763Z,-0.35
2022-12-15T04:40:08.058Z,-0.32
2022-12-15T04:43:14.168Z,-0.33
2022-12-15T04:46:20.078Z,-0.35
2022-12-15T04:49:25.667Z,-0.36
2022-12-15T04:52:37.286Z,-0.44
2022-12-15T04:55:42.939Z,-0.42
2022-12-15T04:58:48.500Z,-0.42
2022-12-15T05:01:54.219Z,-0.38
2022-12-15T05:04:59.775Z,-0.44
2022-12-15T05:08:05.356Z,-0.37
2022-12-15T05:11:11.039Z,-0.28
2022-12-15T05:14:16.882Z,-0.24
2022-12-15T05:17:23.071Z,-0.36
2022-12-15T05:20:29.111Z,-0.32
2022-12-15T05:23:34.927Z,-0.33
2022-12-15T05:26:41.041Z,-0.35
2022-12-15T05:29:46.596Z,-0.37
2022-12-15T05:32:35.744Z,-0.38
2022-12-15T05:35:39.845Z,-0.34
2022-12-15T05:38:26.954Z,-0.40
2022-12-15T05:41:15.313Z,-0.41
2022-12-15T05:44:12.783Z,-0.45
2022-12-15T05:47:00.874Z,-0.46
2022-12-15T05:49:47.987Z,-0.27
2022-12-15T05:52:35.534Z,-0.20
2022-12-15T05:55:22.907Z,-0.18
2022-12-15T05:58:16.925Z,-0.36
2022-12-15T06:01:10.012Z,-0.33
2022-12-15T06:03:58.361Z,-0.41
2022-12-15T06:06:45.494Z,-0.39
2022-12-15T06:09:32.603Z,-0.26
2022-12-15T06:12:19.719Z,-0.41
2022-12-15T06:15:07.201Z,-0.35
2022-12-15T06:17:56.012Z,-0.31
2022-12-15T06:20:43.112Z,-0.40
2022-12-15T06:23:33.314Z,-0.53
2022-12-15T06:26:24.212Z,-0.46
2022-12-15T06:29:12.348Z,-0.47
2022-12-15T06:31:59.378Z,-0.40
2022-12-15T06:34:46.468Z,-0.42
2022-12-15T06:37:33.738Z,-0.39
2022-12-15T06:40:20.813Z,-0.41
2022-12-15T06:43:08.677Z,-0.44
2022-12-15T06:45:56.371Z,-0.42
2022-12-15T06:48:45.816Z,-0.45
2022-12-15T06:51:32.918Z,-0.40
2022-12-15T06:54:19.977Z,-0.36
2022-12-15T06:57:07.056Z,-0.40
2022-12-15T06:59:54.056Z,-0.25
2022-12-15T07:02:43.107Z,-0.30
2022-12-15T07:05:30.442Z,-0.29
2022-12-15T07:08:17.515Z,-0.32
2022-12-15T07:11:06.757Z,-0.39
2022-12-15T07:13:54.714Z,-0.35
2022-12-15T07:16:41.884Z,-0.37
2022-12-15T07:19:30.071Z,-0.31
2022-12-15T07:22:17.110Z,-0.35
2022-12-15T07:25:04.709Z,-0.35
2022-12-15T07:27:51.717Z,-0.45
2022-12-15T07:30:39.421Z,-0.13
2022-12-15T07:33:26.455Z,-0.17
2022-12-15T07:36:13.527Z,-0.36
2022-12-15T07:39:01.490Z,-0.32
2022-12-15T07:41:48.599Z,-0.34
2022-12-15T07:44:35.617Z,-0.37
2022-12-15T07:47:22.669Z,-0.08
2022-12-15T07:50:09.877Z,-0.14
2022-12-15T07:52:57.266Z,-0.26
2022-12-15T07:56:06.109Z,-0.30
2022-12-15T07:58:51.383Z,-0.31
2022-12-15T08:01:38.508Z,-0.45
2022-12-15T08:04:25.813Z,-0.30
2022-12-15T08:07:12.886Z,-0.30
2022-12-15T08:10:00.004Z,-0.05
2022-12-15T08:12:47.015Z,-0.06
2022-12-15T08:15:38.453Z,-0.03
2022-12-15T08:18:25.735Z,-0.10
2022-12-15T08:21:12.895Z,-0.18
2022-12-15T08:24:03.119Z,-0.29
2022-12-15T08:26:50.710Z,-0.20
2022-12-15T08:29:53.177Z,-0.23
2022-12-15T08:32:40.289Z,-0.25
2022-12-15T08:35:55.281Z,-0.25
2022-12-15T08:38:35.536Z,-0.21
2022-12-15T08:41:26.564Z,-0.02
2022-12-15T08:44:13.989Z,-0.04
2022-12-15T08:47:01.061Z,0.02
2022-12-15T08:49:48.790Z,0.00
2022-12-15T08:52:36.248Z,0.07
2022-12-15T08:55:24.072Z,-0.01
2022-12-15T08:58:11.101Z,-0.19
2022-12-15T09:01:03.855Z,-0.02
2022-12-15T09:03:55.944Z,0.06
2022-12-15T09:06:43.509Z,0.16
2022-12-15T09:09:32.062Z,0.32
2022-12-15T09:12:19.136Z,0.26
2022-12-15T09:15:06.680Z,0.34
2022-12-15T09:17:53.733Z,0.47
2022-12-15T09:20:40.728Z,0.32
2022-12-15T09:23:27.959Z,0.32
2022-12-15T09:26:16.013Z,0.27
2022-12-15T09:29:03.293Z,0.47
2022-12-15T09:31:50.503Z,0.32
2022-12-15T09:34:37.608Z,0.18
2022-12-15T09:37:24.650Z,0.48
2022-12-15T09:40:13.782Z,0.52
2022-12-15T09:43:32.880Z,0.42
2022-12-15T09:46:21.206Z,0.39
2022-12-15T09:49:34.822Z,0.31
2022-12-15T09:52:31.485Z,0.33
2022-12-15T09:55:24.900Z,0.42
2022-12-15T09:58:35.806Z,0.58
2022-12-15T10:01:38.884Z,0.56
2022-12-15T10:04:34.870Z,0.36
2022-12-15T10:07:30.248Z,0.44
2022-12-15T10:10:20.151Z,0.25
2022-12-15T10:13:19.510Z,0.17
2022-12-15T10:16:15.816Z,0.10
2022-12-15T10:19:07.413Z,-0.02
2022-12-15T10:21:54.514Z,0.08
2022-12-15T10:25:09.312Z,0.13
2022-12-15T10:28:11.150Z,0.22
2022-12-15T10:31:13.190Z,0.21
2022-12-15T10:34:10.517Z,0.24
2022-12-15T10:36:58.476Z,0.29
2022-12-15T10:42:56.190Z,0.42
2022-12-15T10:45:43.711Z,0.44
2022-12-15T10:48:31.029Z,0.64
2022-12-15T10:51:31.648Z,0.80
2022-12-15T10:54:18.996Z,1.16
2022-12-15T10:57:27.625Z,1.20
2022-12-15T11:00:14.935Z,1.07
2022-12-15T11:03:20.238Z,1.07
2022-12-15T11:06:16.950Z,1.22
2022-12-15T11:09:37.464Z,1.05
2022-12-15T11:12:50.402Z,0.86
2022-12-15T11:15:47.149Z,0.86
2022-12-15T11:18:37.973Z,0.68
2022-12-15T11:21:28.748Z,0.72
2022-12-15T11:24:27.072Z,0.63
2022-12-15T11:27:14.409Z,0.70
2022-12-15T11:30:13.688Z,0.76
2022-12-15T11:33:02.262Z,0.42
2022-12-15T11:36:01.453Z,0.40
2022-12-15T11:39:03.780Z,0.50
2022-12-15T11:42:02.911Z,0.41
2022-12-15T11:45:31.325Z,0.44
2022-12-15T11:48:22.423Z,0.38
2022-12-15T11:51:09.509Z,0.49
2022-12-15T11:54:24.044Z,0.39
2022-12-15T11:57:48.593Z,0.43
2022-12-15T12:00:43.885Z,0.34
2022-12-15T12:03:51.735Z,0.42
2022-12-15T12:06:52.938Z,0.45
2022-12-15T12:09:58.840Z,0.45
2022-12-15T12:12:56.833Z,0.45
2022-12-15T12:16:22.489Z,0.41
2022-12-15T12:19:13.743Z,0.46
2022-12-15T12:22:10.711Z,0.37
2022-12-15T12:25:10.998Z,0.48
2022-12-15T12:28:03.785Z,0.51
2022-12-15T12:30:50.832Z,0.41
2022-12-15T12:33:42.989Z,0.45
2022-12-15T12:36:29.983Z,0.41
2022-12-15T12:39:21.683Z,0.43
2022-12-15T12:42:20.419Z,0.36
2022-12-15T12:45:12.681Z,0.27
2022-12-15T12:48:08.883Z,0.42
2022-12-15T12:51:27.565Z,0.55
2022-12-15T12:54:35.446Z,0.44
2022-12-15T12:57:35.864Z,0.50
2022-12-15T13:00:27.277Z,0.45
2022-12-15T13:03:18.706Z,0.39
2022-12-15T13:06:41.378Z,0.42
2022-12-15T13:09:44.081Z,0.46
2022-12-15T13:12:58.863Z,0.39
2022-12-15T13:15:50.963Z,0.18
2022-12-15T13:19:02.309Z,0.10
2022-12-15T13:21:55.360Z,0.22
2022-12-15T13:24:50.390Z,0.19
2022-12-15T13:27:40.822Z,0.13
2022-12-15T13:30:27.981Z,0.17
2022-12-15T13:33:19.040Z,0.06
2022-12-15T13:36:06.254Z,0.04
2022-12-15T13:38:56.808Z,0.12
2022-12-15T13:42:15.102Z,0.22
2022-12-15T13:45:06.354Z,0.12
2022-12-15T13:47:56.386Z,-0.03
2022-12-15T13:51:00.178Z,0.00
2022-12-15T13:54:10.050Z,0.09
2022-12-15T13:57:05.504Z,0.00
2022-12-15T14:00:00.192Z,-0.19
2022-12-15T14:02:47.533Z,-0.04
2022-12-15T14:05:34.893Z,-0.07
2022-12-15T14:08:23.979Z,-0.08
2022-12-15T14:11:51.304Z,-0.17
2022-12-15T14:14:36.287Z,-0.11
2022-12-15T14:17:23.512Z,-0.20
2022-12-15T14:20:19.720Z,-0.18
2022-12-15T14:23:58.016Z,-0.21
2022-12-15T14:26:50.639Z,-0.26
2022-12-15T14:29:37.748Z,-0.40
2022-12-15T14:32:25.057Z,-0.24
2022-12-15T14:35:24.940Z,-0.12
2022-12-15T14:38:16.524Z,-0.27
2022-12-15T14:41:05.123Z,-0.47
2022-12-15T14:44:37.062Z,-0.13
2022-12-15T14:47:16.630Z,-0.14
2022-12-15T14:50:10.258Z,-0.31
2022-12-15T14:53:06.874Z,-0.37
2022-12-15T14:55:54.433Z,-0.27
2022-12-15T14:58:47.155Z,-0.31
2022-12-15T15:01:57.948Z,-0.24
2022-12-15T15:03:04.488Z,0.36
2022-12-15T15:05:04.319Z,-0.41
2022-12-15T15:07:56.790Z,-0.41
2022-12-15T15:10:44.067Z,-0.51
2022-12-15T15:13:40.880Z,-0.43
2022-12-15T15:16:28.283Z,-0.35
2022-12-15T15:19:21.505Z,-0.33
2022-12-15T15:22:26.371Z,-0.55
2022-12-15T15:25:41.566Z,-0.39
2022-12-15T15:28:36.460Z,-0.34
2022-12-15T15:31:41.481Z,-0.18
2022-12-15T15:34:31.588Z,-0.23
2022-12-15T15:37:23.733Z,-0.13
2022-12-15T15:40:13.430Z,-0.32
2022-12-15T15:43:00.547Z,-0.33
2022-12-15T15:45:49.573Z,-0.46
2022-12-15T15:48:42.325Z,-0.46
2022-12-15T15:51:31.442Z,-0.28
2022-12-15T15:54:23.071Z,-0.59
2022-12-15T15:57:18.275Z,-0.40
2022-12-15T16:00:20.262Z,-0.50
2022-12-15T16:03:08.757Z,-0.44
2022-12-15T16:05:56.520Z,-0.63
2022-12-15T16:08:44.828Z,-0.57
2022-12-15T16:11:32.496Z,-0.44
2022-12-15T16:14:19.645Z,-0.51
2022-12-15T16:17:09.814Z,-0.45
2022-12-15T16:19:56.969Z,-0.48
2022-12-15T16:22:47.334Z,-0.47
2022-12-15T16:25:48.560Z,-0.55
2022-12-15T16:28:38.208Z,-0.57
2022-12-15T16:31:42.056Z,-0.63
2022-12-15T16:34:29.357Z,-0.63
2022-12-15T16:37:27.790Z,-0.55
2022-12-15T16:40:27.797Z,-0.47
2022-12-15T16:43:21.270Z,-0.63
2022-12-15T16:46:12.545Z,-0.61
2022-12-15T16:48:59.880Z,-0.65
2022-12-15T16:51:51.490Z,-0.57
2022-12-15T16:54:39.329Z,-0.67
2022-12-15T16:57:26.754Z,-0.63
2022-12-15T17:00:22.664Z,-0.60
2022-12-15T17:03:15.575Z,-0.61
2022-12-15T17:06:06.764Z,-0.64
2022-12-15T17:08:57.799Z,-0.56
2022-12-15T17:11:45.438Z,-0.45
2022-12-15T17:14:33.103Z,-0.63
2022-12-15T17:17:20.792Z,-0.68
2022-12-15T17:23:22.761Z,-0.66
2022-12-15T17:26:29.039Z,-0.55
2022-12-15T17:29:20.405Z,-0.45
2022-12-15T17:32:13.058Z,-0.61
2022-12-15T17:35:03.909Z,-0.54
2022-12-15T17:37:51.869Z,-0.63
2022-12-15T17:40:40.530Z,-0.59
2022-12-15T17:43:33.843Z,-0.56
2022-12-15T17:46:23.402Z,-0.56
2022-12-15T17:49:10.609Z,-0.51
2022-12-15T17:52:01.376Z,-0.62
2022-12-15T17:54:49.042Z,-0.69
2022-12-15T17:57:36.693Z,-0.65
2022-12-15T18:00:31.871Z,-0.55
2022-12-15T18:03:21.535Z,-0.66
2022-12-15T18:06:14.876Z,-0.56
2022-12-15T18:09:02.729Z,-0.54
2022-12-15T18:11:49.876Z,-0.65
2022-12-15T18:14:37.545Z,-0.63
2022-12-15T18:17:25.097Z,-0.61
2022-12-15T18:20:12.410Z,-0.68
2022-12-15T18:23:00.656Z,-0.69
2022-12-15T18:25:48.737Z,-0.59
2022-12-15T18:28:36.388Z,-0.64
2022-12-15T18:31:27.032Z,-0.68
2022-12-15T18:34:19.065Z,-0.65
2022-12-15T18:37:17.645Z,-0.76
2022-12-15T18:40:05.466Z,-0.61
2022-12-15T18:42:54.474Z,-0.72
2022-12-15T18:45:42.349Z,-0.61
2022-12-15T18:48:35.441Z,-0.61
2022-12-15T18:51:23.919Z,-0.71
2022-12-15T18:54:23.585Z,-0.69
2022-12-15T18:57:32.315Z,-0.62
2022-12-15T19:00:25.203Z,-0.62
2022-12-15T19:03:13.175Z,-0.61
2022-12-15T19:06:04.125Z,-0.63
2022-12-15T19:08:52.406Z,-0.51
2022-12-15T19:11:41.324Z,-0.66
2022-12-15T19:14:40.865Z,-0.72
2022-12-15T19:17:47.039Z,-0.65
2022-12-15T19:20:53.790Z,-0.69
2022-12-15T19:23:41.028Z,-0.65
2022-12-15T19:26:28.682Z,-0.61
2022-12-15T19:29:19.440Z,-0.88
2022-12-15T19:32:08.965Z,-0.86
2022-12-15T19:34:59.189Z,-0.73
2022-12-15T19:37:50.543Z,-0.70
2022-12-15T19:51:45.376Z,-0.53
2022-12-15T19:57:50.921Z,-0.56
2022-12-15T20:00:40.177Z,-0.49
2022-12-15T20:03:29.495Z,-0.56
2022-12-15T20:06:21.061Z,-0.45
2022-12-15T20:09:15.624Z,-0.43
2022-12-15T20:12:03.958Z,-0.45
2022-12-15T20:14:51.504Z,-0.44
2022-12-15T20:17:39.247Z,-0.49
2022-12-15T20:20:28.706Z,-0.37
2022-12-15T20:23:29.718Z,-0.48
2022-12-15T20:26:17.851Z,-0.54
2022-12-15T20:29:07.879Z,-0.46
2022-12-15T20:31:57.591Z,-0.57
2022-12-15T20:34:47.471Z,-0.44
2022-12-15T20:37:34.751Z,-0.54
2022-12-15T20:40:25.666Z,-0.67
2022-12-15T20:43:18.448Z,-0.54
2022-12-15T20:46:23.797Z,-0.49
2022-12-15T20:49:17.179Z,-0.50
2022-12-15T20:52:07.018Z,-0.52
2022-12-15T20:54:55.276Z,-0.72
2022-12-15T20:57:42.832Z,-0.63
2022-12-15T21:00:30.486Z,-0.58
2022-12-15T21:03:28.417Z,-0.59
2022-12-15T21:06:15.982Z,-0.68
2022-12-15T21:09:03.560Z,-0.55
2022-12-15T21:11:52.220Z,-0.57
2022-12-15T21:14:42.750Z,-0.51
2022-12-15T21:17:29.900Z,-0.51
2022-12-15T21:20:17.142Z,-0.58
2022-12-15T21:23:04.228Z,-0.55
2022-12-15T21:25:52.073Z,-0.56
2022-12-15T21:28:39.138Z,-0.56
2022-12-15T21:31:26.715Z,-0.76
2022-12-15T21:34:13.961Z,-0.59
2022-12-15T21:37:03.043Z,-0.62
2022-12-15T21:39:50.235Z,-0.61
2022-12-15T21:42:38.345Z,-0.81
2022-12-15T21:45:26.738Z,-0.63
2022-12-15T21:48:32.669Z,-0.56
2022-12-15T21:51:19.892Z,-0.56
2022-12-15T21:54:20.246Z,-0.60
2022-12-15T21:57:11.778Z,-0.58
2022-12-15T21:59:58.950Z,-0.61
2022-12-15T22:02:47.595Z,-0.60
2022-12-15T22:05:34.670Z,-0.59
2022-12-15T22:08:22.491Z,-0.64
2022-12-15T22:11:23.190Z,-0.60
2022-12-15T22:14:19.752Z,-0.59
2022-12-15T22:17:27.032Z,-0.59
2022-12-15T22:20:15.483Z,-0.54
2022-12-15T22:23:02.546Z,-0.61
2022-12-15T22:25:54.711Z,-0.68
2022-12-15T22:28:41.881Z,-0.70
2022-12-15T22:31:29.372Z,-0.69
2022-12-15T22:34:21.903Z,-0.72
2022-12-15T22:37:09.140Z,-0.75
2022-12-15T22:39:56.240Z,-0.72
2022-12-15T22:42:51.319Z,-0.73
2022-12-15T22:45:42.739Z,-0.70
2022-12-15T22:48:34.503Z,-0.76
2022-12-15T22:51:22.168Z,-0.68
2022-12-15T22:54:19.334Z,-0.81
2022-12-15T22:57:17.435Z,-0.73
2022-12-15T23:00:09.771Z,-0.77
2022-12-15T23:05:50.971Z,-0.69
2022-12-15T23:08:38.786Z,-0.72
2022-12-15T23:11:38.179Z,-0.80
2022-12-15T23:14:43.948Z,-0.76
2022-12-15T23:17:30.966Z,-0.74
2022-12-15T23:20:18.083Z,-0.74
2022-12-15T23:23:05.459Z,-0.76
2022-12-15T23:25:52.566Z,-0.85
2022-12-15T23:28:41.250Z,-0.77
2022-12-15T23:31:29.043Z,-0.78
2022-12-15T23:34:16.168Z,-0.77
2022-12-15T23:37:03.220Z,-0.72
2022-12-15T23:39:50.223Z,-0.74
2022-12-15T23:42:38.854Z,-0.84
2022-12-15T23:45:25.974Z,-0.78
2022-12-15T23:48:14.312Z,-0.73
2022-12-15T23:51:16.231Z,-0.77
2022-12-15T23:54:03.347Z,-0.57
2022-12-15T23:56:50.330Z,-0.68
2022-12-15T23:59:38.763Z,-0.80
